Time;durP1;ratioP1;P1;durP2;ratioP2;P2;SDS_P1;SDS_P2;PMS_P1;PMS_P2;Temp;Humidity;BMP_temperature;BMP_pressure;BME280_temperature;BME280_humidity;BME280_pressure;Samples;Min_cycle;Max_cycle;Signal;HPM_P1;HPM_P2
2023/01/05 00:01:10;;;;;;;1.53;0.80;;;;;;;7.86;100.00;96309.06;5057228;28;20451;-75
2023/01/05 00:03:37;;;;;;;4.20;1.23;;;;;;;7.79;100.00;96292.97;5037597;28;20775;-75
2023/01/05 00:06:07;;;;;;;1.23;0.90;;;;;;;7.64;100.00;96275.78;5050875;28;20433;-75
2023/01/05 00:08:33;;;;;;;1.20;1.10;;;;;;;7.57;100.00;96268.34;5062655;28;20440;-75
2023/01/05 00:22:37;;;;;;;3.50;3.20;;;;;;;7.90;100.00;96326.59;5064543;28;20490;-75
2023/01/05 00:25:13;;;;;;;0.90;0.90;;;;;;;7.89;100.00;96311.13;5060201;28;20530;-75
2023/01/05 00:27:42;;;;;;;1.80;1.13;;;;;;;7.27;100.00;96214.78;5071195;28;20519;-75
2023/01/05 00:30:10;;;;;;;1.77;1.03;;;;;;;7.64;100.00;96279.19;5052813;28;20503;-75
2023/01/05 00:32:39;;;;;;;1.00;0.90;;;;;;;7.60;100.00;96256.41;5065608;28;20429;-75
2023/01/05 00:35:06;;;;;;;0.80;0.80;;;;;;;7.54;100.00;96250.53;5062260;28;20452;-75
2023/01/05 00:37:34;;;;;;;0.87;0.87;;;;;;;7.55;100.00;96230.28;5046713;28;20450;-75
2023/01/05 00:40:01;;;;;;;1.30;1.20;;;;;;;7.84;100.00;96277.81;5076488;28;20531;-75
2023/01/05 00:42:27;;;;;;;1.20;1.10;;;;;;;7.79;100.00;96264.81;5056455;28;20762;-75
2023/01/05 00:44:54;;;;;;;1.77;1.13;;;;;;;7.84;100.00;96275.16;5069488;28;21043;-74
2023/01/05 00:47:21;;;;;;;3.53;1.20;;;;;;;7.54;100.00;96231.34;5053139;28;20472;-75
2023/01/05 00:49:48;;;;;;;0.80;0.80;;;;;;;7.80;100.00;96262.94;5059133;28;20432;-74
2023/01/05 00:52:14;;;;;;;1.60;1.50;;;;;;;7.78;100.00;96260.63;5053065;28;20436;-74
2023/01/05 00:54:41;;;;;;;1.50;1.10;;;;;;;7.53;100.00;96221.91;5045446;28;20518;-74
2023/01/05 00:57:12;;;;;;;1.60;1.27;;;;;;;7.74;100.00;96253.63;5069511;28;20932;-74
2023/01/05 00:59:39;;;;;;;1.73;1.10;;;;;;;7.70;100.00;96242.97;5052907;28;20527;-74
2023/01/05 01:02:06;;;;;;;1.20;1.10;;;;;;;7.52;100.00;96215.13;5069424;28;20456;-75
2023/01/05 01:04:34;;;;;;;1.33;1.20;;;;;;;7.69;100.00;96250.09;5073996;28;20444;-75
2023/01/05 01:07:04;;;;;;;0.80;0.80;;;;;;;7.84;100.00;96264.66;5060257;28;20437;-75
2023/01/05 01:09:31;;;;;;;1.00;0.90;;;;;;;7.86;100.00;96248.53;5063090;28;20426;-75
2023/01/05 01:11:58;;;;;;;2.17;1.20;;;;;;;7.64;100.00;96221.31;5060086;28;20804;-75
2023/01/05 01:14:25;;;;;;;1.33;1.00;;;;;;;7.70;100.00;96206.91;5056054;28;20486;-75
2023/01/05 01:16:52;;;;;;;1.33;1.00;;;;;;;7.83;100.00;96222.84;5061113;28;20451;-75
2023/01/05 01:19:22;;;;;;;1.10;0.80;;;;;;;7.81;100.00;96219.75;5062853;28;20425;-74
2023/01/05 01:21:49;;;;;;;1.10;0.97;;;;;;;7.78;100.00;96215.13;5060580;28;20493;-75
2023/01/05 01:24:18;;;;;;;1.20;1.00;;;;;;;7.91;100.00;96230.75;5055897;28;20467;-75
2023/01/05 01:26:45;;;;;;;1.00;0.80;;;;;;;7.80;100.00;96212.94;5069186;28;20501;-75
2023/01/05 01:29:12;;;;;;;0.97;0.87;;;;;;;7.91;100.00;96230.75;5055631;28;20949;-75
2023/01/05 01:31:39;;;;;;;1.20;1.10;;;;;;;8.02;100.00;96241.75;5058285;28;20449;-74
2023/01/05 01:34:06;;;;;;;0.90;0.77;;;;;;;7.76;100.00;96191.75;5064044;28;20515;-75
2023/01/05 01:36:33;;;;;;;1.23;1.00;;;;;;;7.79;100.00;96188.50;5043340;28;20436;-75
2023/01/05 01:39:00;;;;;;;1.53;1.47;;;;;;;7.72;100.00;96178.41;5082561;28;20489;-74
2023/01/05 01:41:30;;;;;;;0.70;0.70;;;;;;;7.84;100.00;96187.53;5054106;28;20948;-74
2023/01/05 01:43:57;;;;;;;0.87;0.70;;;;;;;7.67;100.00;96170.69;5043780;28;20456;-75
2023/01/05 01:46:26;;;;;;;0.70;0.70;;;;;;;7.70;100.00;96180.59;5080870;28;20483;-75
2023/01/05 01:48:59;;;;;;;0.87;0.70;;;;;;;7.96;100.00;96214.78;5068428;28;20452;-75
2023/01/05 01:51:34;;;;;;;1.17;1.07;;;;;;;8.00;100.00;96213.06;5066392;28;20531;-75
2023/01/05 01:54:05;;;;;;;0.90;0.80;;;;;;;7.90;100.00;96202.88;5060928;28;20558;-74
2023/01/05 01:56:44;;;;;;;0.80;0.80;;;;;;;7.84;100.00;96166.50;5060912;28;20887;-75
2023/01/05 01:59:12;;;;;;;1.00;0.70;;;;;;;8.00;100.00;96191.22;5082171;28;20440;-75
2023/01/05 02:01:39;;;;;;;0.70;0.70;;;;;;;8.00;100.00;96181.47;5068335;28;20440;-75
2023/01/05 02:04:08;;;;;;;0.77;0.67;;;;;;;7.89;100.00;96171.59;5063611;28;20505;-75
2023/01/05 02:06:35;;;;;;;0.87;0.80;;;;;;;8.04;100.00;96197.44;5074064;28;20441;-75
2023/01/05 02:09:04;;;;;;;1.03;0.80;;;;;;;7.84;100.00;96161.22;5074082;28;20515;-75
2023/01/05 02:12:03;;;;;;;1.10;1.00;;;;;;;8.01;100.00;96198.03;5074092;28;20535;-74
2023/01/05 02:14:39;;;;;;;0.70;0.70;;;;;;;8.04;100.00;96186.13;5066022;28;20477;-74
2023/01/05 02:17:43;;;;;;;1.10;0.93;;;;;;;8.00;100.00;96189.38;5063521;28;20975;-75
2023/01/05 02:20:31;;;;;;;1.03;1.00;;;;;;;7.99;100.00;96200.22;5078496;28;20490;-75
2023/01/05 02:23:29;;;;;;;1.30;0.90;;;;;;;7.92;100.00;96182.28;5066514;28;20544;-74
2023/01/05 02:25:59;;;;;;;1.07;0.97;;;;;;;7.89;100.00;96187.41;5065660;28;20495;-75
2023/01/05 02:29:05;;;;;;;0.97;0.97;;;;;;;7.84;100.00;96167.25;5047134;28;20501;-75
2023/01/05 02:31:51;;;;;;;1.53;1.00;;;;;;;7.66;100.00;96147.31;5062196;28;20436;-75
2023/01/05 02:34:28;;;;;;;0.93;0.83;;;;;;;7.79;100.00;96162.16;5055593;28;20844;-75
2023/01/05 02:37:23;;;;;;;1.00;0.87;;;;;;;7.71;100.00;96149.78;5073199;28;20439;-75
2023/01/05 02:39:58;;;;;;;0.70;0.70;;;;;;;7.80;100.00;96176.09;5080492;28;20532;-75
2023/01/05 02:42:28;;;;;;;1.07;1.00;;;;;;;7.81;100.00;96157.38;5042134;28;20798;-75
2023/01/05 02:44:54;;;;;;;1.20;1.07;;;;;;;7.67;100.00;96138.34;5071773;28;20956;-74
2023/01/05 02:47:24;;;;;;;1.73;0.93;;;;;;;7.79;100.00;96145.59;5048614;28;20425;-75
2023/01/05 02:50:08;;;;;;;1.10;0.90;;;;;;;7.60;100.00;96123.00;5048623;28;20436;-75
2023/01/05 02:52:53;;;;;;;0.90;0.90;;;;;;;7.76;100.00;96135.72;5044695;28;20493;-75
2023/01/05 02:55:27;;;;;;;1.47;1.37;;;;;;;7.78;100.00;96128.28;5059196;28;20471;-75
2023/01/05 02:58:01;;;;;;;2.13;1.17;;;;;;;7.64;100.00;96108.16;5071663;28;20471;-75
2023/01/05 03:00:41;;;;;;;0.70;0.70;;;;;;;7.68;100.00;96113.56;5072678;28;20506;-74
2023/01/05 03:03:23;;;;;;;1.43;0.90;;;;;;;7.65;100.00;96120.25;5088462;28;20444;-75
2023/01/05 03:06:06;;;;;;;1.87;1.40;;;;;;;7.81;100.00;96156.59;5071615;28;20467;-75
2023/01/05 03:08:37;;;;;;;1.00;0.70;;;;;;;7.62;100.00;96112.19;5058970;28;20539;-75
2023/01/05 03:14:02;;;;;;;1.00;0.90;;;;;;;7.90;100.00;96152.09;5060375;28;20520;-75
2023/01/05 03:16:35;;;;;;;0.90;0.77;;;;;;;7.91;100.00;96141.25;5066235;28;20417;-75
2023/01/05 03:36:08;;;;;;;0.90;0.90;;;;;;;7.92;100.00;96134.13;5058931;28;20432;-75
2023/01/05 03:38:46;;;;;;;1.03;0.80;;;;;;;7.92;100.00;96124.38;5084779;28;20831;-75
2023/01/05 03:41:15;;;;;;;0.93;0.93;;;;;;;7.75;100.00;96102.59;5070980;28;20427;-76
2023/01/05 03:43:45;;;;;;;1.23;0.80;;;;;;;7.93;100.00;96130.41;5073442;28;20877;-75
2023/01/05 03:46:18;;;;;;;0.70;0.70;;;;;;;7.90;100.00;96131.03;5070872;28;20432;-75
2023/01/05 03:48:46;;;;;;;0.80;0.80;;;;;;;7.88;100.00;96122.66;5065936;28;20442;-76
2023/01/05 03:51:16;;;;;;;0.73;0.70;;;;;;;7.76;100.00;96117.28;5063067;28;20505;-75
2023/01/05 03:53:42;;;;;;;1.23;0.80;;;;;;;7.83;100.00;96117.56;5057365;28;20475;-74
2023/01/05 03:56:09;;;;;;;0.70;0.70;;;;;;;7.77;100.00;96108.31;5054086;28;20438;-75
2023/01/05 03:58:36;;;;;;;1.13;0.70;;;;;;;7.79;100.00;96095.59;5057086;28;20524;-75
2023/01/05 04:01:04;;;;;;;0.60;0.57;;;;;;;7.98;100.00;96123.09;5065181;28;20933;-75
2023/01/05 04:03:31;;;;;;;0.70;0.60;;;;;;;7.83;100.00;96099.16;5053402;28;20958;-75
2023/01/05 04:06:01;;;;;;;0.60;0.60;;;;;;;7.58;100.00;96054.16;5076521;28;20439;-75
2023/01/05 04:08:30;;;;;;;0.60;0.60;;;;;;;7.92;100.00;96113.84;5064514;28;20433;-75
2023/01/05 04:11:18;;;;;;;0.70;0.63;;;;;;;8.00;100.00;96122.78;5063752;28;21066;-75
2023/01/05 04:13:50;;;;;;;0.73;0.63;;;;;;;7.92;100.00;96102.53;5046049;28;20503;-75
2023/01/05 04:16:17;;;;;;;0.80;0.80;;;;;;;7.91;100.00;96104.41;5065273;28;20447;-75
2023/01/05 04:18:44;;;;;;;0.70;0.70;;;;;;;7.95;100.00;96122.97;5045552;28;20436;-75
2023/01/05 04:21:14;;;;;;;0.70;0.70;;;;;;;8.08;100.00;96121.22;5054361;28;20841;-76
2023/01/05 04:23:42;;;;;;;0.80;0.70;;;;;;;8.07;100.00;96102.03;5061195;28;21074;-76
2023/01/05 04:26:09;;;;;;;0.63;0.63;;;;;;;8.06;100.00;96126.03;5070005;28;20495;-75
2023/01/05 04:28:36;;;;;;;0.60;0.60;;;;;;;8.07;100.00;96120.44;5070293;28;20921;-75
2023/01/05 04:31:03;;;;;;;0.77;0.77;;;;;;;8.09;100.00;96125.41;5053476;28;20466;-75
2023/01/05 04:33:31;;;;;;;0.80;0.73;;;;;;;8.06;100.00;96124.19;5040686;28;20540;-75
2023/01/05 04:35:59;;;;;;;0.60;0.60;;;;;;;8.19;100.00;96144.28;5053397;28;20463;-76
2023/01/05 04:38:29;;;;;;;0.60;0.60;;;;;;;8.14;100.00;96139.16;5083521;28;20431;-74
2023/01/05 04:40:56;;;;;;;0.60;0.60;;;;;;;8.12;100.00;96143.19;5070143;28;20440;-75
2023/01/05 04:43:24;;;;;;;0.70;0.70;;;;;;;7.94;100.00;96122.19;5070001;28;20432;-75
2023/01/05 04:45:51;;;;;;;0.60;0.60;;;;;;;8.04;100.00;96144.78;5053703;28;20531;-75
2023/01/05 04:48:18;;;;;;;0.60;0.60;;;;;;;8.10;100.00;96146.16;5070978;28;20479;-75
2023/01/05 04:50:54;;;;;;;0.70;0.70;;;;;;;8.13;100.00;96157.91;5080942;28;20441;-80
2023/01/05 04:53:26;;;;;;;0.70;0.60;;;;;;;7.99;100.00;96135.16;5077056;28;20455;-79
2023/01/05 04:55:54;;;;;;;0.60;0.60;;;;;;;7.99;100.00;96144.94;5096757;28;20422;-80
2023/01/05 04:58:21;;;;;;;0.70;0.60;;;;;;;8.05;100.00;96151.59;5049170;28;20529;-75
2023/01/05 05:00:49;;;;;;;0.60;0.60;;;;;;;8.11;100.00;96170.63;5069881;28;20523;-75
2023/01/05 05:03:16;;;;;;;0.70;0.70;;;;;;;7.99;100.00;96150.97;5056354;28;20444;-75
2023/01/05 05:05:43;;;;;;;0.60;0.53;;;;;;;7.89;100.00;96137.38;5061718;28;20999;-75
2023/01/05 05:08:11;;;;;;;1.43;0.70;;;;;;;7.92;100.00;96155.19;5064881;28;20437;-75
2023/01/05 05:10:38;;;;;;;0.70;0.60;;;;;;;7.79;100.00;96146.38;5045110;28;20887;-76
2023/01/05 05:13:05;;;;;;;0.77;0.70;;;;;;;7.82;100.00;96158.91;5056089;28;20431;-76
2023/01/05 05:15:32;;;;;;;0.80;0.60;;;;;;;7.54;100.00;96115.59;5060872;28;20460;-75
2023/01/05 05:18:01;;;;;;;0.80;0.70;;;;;;;7.69;100.00;96144.06;5063934;28;20595;-75
2023/01/05 05:20:35;;;;;;;1.63;0.70;;;;;;;7.83;100.00;96170.22;5062745;28;20526;-75
2023/01/05 05:23:01;;;;;;;0.70;0.70;;;;;;;7.80;100.00;96161.06;5056248;28;20443;-75
2023/01/05 05:25:31;;;;;;;1.63;0.83;;;;;;;7.86;100.00;96188.00;5059220;28;20467;-75
2023/01/05 05:27:58;;;;;;;1.80;0.90;;;;;;;7.83;100.00;96188.63;5069443;28;20521;-75
2023/01/05 05:30:24;;;;;;;0.90;0.90;;;;;;;7.72;100.00;96159.22;5069485;28;20524;-76
2023/01/05 05:32:51;;;;;;;3.43;0.80;;;;;;;7.39;100.00;96122.91;5070751;28;20428;-75
2023/01/05 05:35:18;;;;;;;1.57;0.70;;;;;;;7.70;100.00;96199.00;5055795;28;21051;-75
2023/01/05 05:37:44;;;;;;;1.17;0.80;;;;;;;7.56;100.00;96171.31;5069496;28;20842;-75
2023/01/05 05:40:16;;;;;;;3.60;0.70;;;;;;;7.60;100.00;96198.53;5070776;28;20456;-75
2023/01/05 05:42:43;;;;;;;2.93;0.87;;;;;;;7.35;100.00;96187.72;5060813;28;20477;-76
2023/01/05 05:45:10;;;;;;;3.53;1.17;;;;;;;7.38;100.00;96231.81;5048703;28;20491;-76
2023/01/05 05:47:37;;;;;;;2.40;1.30;;;;;;;6.75;100.00;96171.81;5060656;28;20425;-76
2023/01/05 05:50:04;;;;;;;3.17;1.37;;;;;;;7.13;100.00;96258.03;5064153;28;20828;-75
2023/01/05 05:52:31;;;;;;;5.67;1.40;;;;;;;6.71;100.00;96205.81;5058614;28;20441;-75
2023/01/05 05:54:57;;;;;;;4.07;1.77;;;;;;;6.94;100.00;96253.03;5070440;28;20472;-75
2023/01/05 05:57:24;;;;;;;6.93;2.37;;;;;;;6.75;100.00;96235.66;5069313;28;20944;-75
2023/01/05 05:59:51;;;;;;;2.60;1.37;;;;;;;6.74;100.00;96254.34;5055812;28;20459;-76
2023/01/05 06:02:18;;;;;;;3.97;2.67;;;;;;;6.62;100.00;96262.00;5069309;28;20486;-75
2023/01/05 06:04:45;;;;;;;6.00;1.23;;;;;;;6.70;100.00;96261.28;5039058;28;20495;-76
2023/01/05 06:07:11;;;;;;;2.80;1.17;;;;;;;6.76;100.00;96312.63;5069219;28;20781;-76
2023/01/05 06:09:38;;;;;;;5.20;1.80;;;;;;;6.56;100.00;96279.75;5070433;28;20519;-76
2023/01/05 06:12:05;;;;;;;7.07;2.00;;;;;;;6.59;100.00;96260.78;5059351;28;20487;-75
2023/01/05 06:14:32;;;;;;;7.40;1.83;;;;;;;6.81;100.00;96278.31;5045613;28;20464;-76
2023/01/05 06:16:59;;;;;;;4.03;1.40;;;;;;;6.17;100.00;96183.34;5042730;28;20468;-75
2023/01/05 06:19:26;;;;;;;5.40;1.60;;;;;;;6.62;100.00;96241.00;5056902;28;20428;-76
2023/01/05 06:21:52;;;;;;;4.53;2.03;;;;;;;6.89;100.00;96282.84;5058751;28;20968;-75
2023/01/05 06:24:19;;;;;;;2.40;1.33;;;;;;;6.88;100.00;96267.38;5066944;28;20462;-75
2023/01/05 06:26:46;;;;;;;3.73;1.40;;;;;;;7.01;100.00;96277.78;5061399;28;20460;-75
2023/01/05 06:29:12;;;;;;;6.83;1.50;;;;;;;6.99;100.00;96289.69;5067005;28;20464;-76
2023/01/05 06:31:39;;;;;;;2.13;1.33;;;;;;;6.70;100.00;96250.78;5048714;28;20785;-75
2023/01/05 06:34:06;;;;;;;1.90;1.47;;;;;;;7.05;100.00;96296.34;5061025;28;20464;-79
2023/01/05 06:36:32;;;;;;;3.33;1.57;;;;;;;6.54;100.00;96245.13;5060682;28;20452;-78
2023/01/05 06:38:59;;;;;;;2.30;1.67;;;;;;;6.89;100.00;96277.59;5090771;28;20439;-78
2023/01/05 06:41:26;;;;;;;2.13;1.40;;;;;;;6.82;100.00;96277.28;5077234;28;20584;-79
2023/01/05 06:43:52;;;;;;;5.30;1.17;;;;;;;6.85;100.00;96268.78;5077702;28;20875;-78
2023/01/05 06:46:19;;;;;;;10.23;1.83;;;;;;;7.00;100.00;96294.66;5058221;28;20436;-79
2023/01/05 06:48:46;;;;;;;10.03;4.83;;;;;;;6.97;100.00;96297.13;5075502;28;20421;-79
2023/01/05 06:51:12;;;;;;;7.20;2.37;;;;;;;6.47;100.00;96232.44;5076822;28;20438;-78
2023/01/05 06:53:39;;;;;;;2.13;1.77;;;;;;;6.73;100.00;96289.59;5074737;28;20435;-79
2023/01/05 06:56:06;;;;;;;5.93;1.70;;;;;;;6.65;100.00;96280.56;5074851;28;21066;-79
2023/01/05 06:58:32;;;;;;;5.97;1.40;;;;;;;6.67;100.00;96288.91;5061454;28;20443;-78
2023/01/05 07:00:59;;;;;;;3.60;1.70;;;;;;;6.76;100.00;96307.38;5085017;28;20924;-77
2023/01/05 07:03:26;;;;;;;3.07;1.80;;;;;;;6.80;100.00;96316.19;5059170;28;20436;-79
2023/01/05 07:05:52;;;;;;;6.03;2.00;;;;;;;6.72;100.00;96322.19;5074708;28;20440;-79
2023/01/05 07:08:19;;;;;;;9.00;2.40;;;;;;;6.83;100.00;96344.50;5074916;28;20447;-79
2023/01/05 07:10:46;;;;;;;3.70;2.23;;;;;;;6.70;100.00;96330.38;5073234;28;20421;-77
2023/01/05 07:13:12;;;;;;;4.37;2.13;;;;;;;6.95;100.00;96363.13;5071863;28;20974;-76
2023/01/05 07:15:39;;;;;;;6.30;1.90;;;;;;;5.89;100.00;96203.66;5055122;28;20543;-76
2023/01/05 07:18:06;;;;;;;6.53;2.37;;;;;;;6.96;100.00;96375.19;5072145;28;20425;-76
2023/01/05 07:20:33;;;;;;;5.30;2.43;;;;;;;6.52;100.00;96307.69;5055520;28;20432;-76
2023/01/05 07:23:00;;;;;;;5.10;1.63;;;;;;;6.77;100.00;96351.72;5071540;28;20447;-76
2023/01/05 07:25:30;;;;;;;4.57;1.83;;;;;;;6.91;100.00;96379.78;5071384;28;21029;-76
2023/01/05 07:27:57;;;;;;;5.50;2.67;;;;;;;7.04;100.00;96392.84;5058028;28;20795;-76
2023/01/05 07:30:23;;;;;;;9.53;2.13;;;;;;;6.99;100.00;96390.34;5071487;28;20435;-76
2023/01/05 07:32:50;;;;;;;5.13;1.73;;;;;;;6.78;100.00;96374.28;5071435;28;20428;-76
2023/01/05 07:35:17;;;;;;;7.20;3.03;;;;;;;6.72;100.00;96369.47;5054683;28;20508;-77
2023/01/05 07:37:43;;;;;;;5.13;2.50;;;;;;;6.87;100.00;96384.09;5067393;28;20523;-76
2023/01/05 07:40:10;;;;;;;4.57;1.77;;;;;;;7.02;100.00;96415.25;5053985;28;20494;-76
2023/01/05 07:42:37;;;;;;;5.57;2.20;;;;;;;6.86;100.00;96404.34;5071299;28;20498;-76
2023/01/05 07:45:04;;;;;;;5.20;2.17;;;;;;;6.83;100.00;96399.69;5071392;28;20466;-76
2023/01/05 07:47:31;;;;;;;7.63;2.03;;;;;;;6.82;100.00;96404.16;5054824;28;20432;-76
2023/01/05 07:49:57;;;;;;;8.43;2.80;;;;;;;6.93;100.00;96404.69;5054627;28;20442;-76
2023/01/05 07:52:24;;;;;;;6.63;1.27;;;;;;;6.52;100.00;96355.75;5071266;28;20532;-76
2023/01/05 07:54:51;;;;;;;7.83;2.57;;;;;;;7.05;100.00;96430.41;5054409;28;21076;-76
2023/01/05 07:57:17;;;;;;;11.37;2.50;;;;;;;6.72;100.00;96387.88;5071077;28;20818;-76
2023/01/05 07:59:44;;;;;;;6.40;2.47;;;;;;;6.78;100.00;96408.44;5046352;28;20434;-76
2023/01/05 08:02:11;;;;;;;5.33;1.87;;;;;;;6.92;100.00;96432.03;5072269;28;20432;-76
2023/01/05 08:04:37;;;;;;;10.83;2.37;;;;;;;6.81;100.00;96410.50;5070705;28;20448;-76
2023/01/05 08:07:08;;;;;;;7.67;2.20;;;;;;;6.41;100.00;96349.19;5070777;28;20436;-76
2023/01/05 08:12:21;;;;;;;5.33;3.37;;;;;;;7.00;100.00;96439.22;5070624;28;20440;-76
2023/01/05 08:14:48;;;;;;;5.03;2.47;;;;;;;6.62;100.00;96401.25;5070614;28;20467;-75
2023/01/05 08:17:15;;;;;;;6.07;1.77;;;;;;;6.84;100.00;96429.38;5070613;28;20817;-76
2023/01/05 08:19:41;;;;;;;6.27;2.20;;;;;;;6.78;100.00;96439.22;5070782;28;20832;-76
2023/01/05 08:22:08;;;;;;;5.70;2.10;;;;;;;6.91;100.00;96451.50;5071797;28;20855;-76
2023/01/05 08:24:34;;;;;;;10.00;2.20;;;;;;;6.79;100.00;96435.50;5070148;28;20456;-76
2023/01/05 08:27:01;;;;;;;4.50;2.20;;;;;;;6.90;100.00;96470.22;5070458;28;20436;-76
2023/01/05 08:29:28;;;;;;;5.40;2.13;;;;;;;6.78;100.00;96468.13;5070244;28;20509;-76
2023/01/05 08:31:58;;;;;;;5.20;2.17;;;;;;;6.91;100.00;96483.06;5053882;28;20464;-76
2023/01/05 08:34:24;;;;;;;7.57;2.70;;;;;;;7.07;100.00;96497.38;5070168;28;20895;-76
2023/01/05 08:36:58;;;;;;;7.40;2.60;;;;;;;6.84;100.00;96472.19;5072052;28;20517;-76
2023/01/05 08:39:25;;;;;;;4.80;1.73;;;;;;;6.75;100.00;96448.47;5065508;28;20494;-76
2023/01/05 08:41:51;;;;;;;5.17;2.83;;;;;;;6.85;100.00;96471.13;5053348;28;20518;-76
2023/01/05 08:44:26;;;;;;;7.00;2.17;;;;;;;6.96;100.00;96496.09;5071353;28;20447;-76
2023/01/05 08:46:52;;;;;;;11.20;2.10;;;;;;;6.90;100.00;96483.34;5071216;28;20436;-76
2023/01/05 08:49:19;;;;;;;8.77;2.87;;;;;;;7.15;100.00;96516.16;5070034;28;20519;-76
2023/01/05 08:51:46;;;;;;;3.30;1.60;;;;;;;7.02;100.00;96497.50;5069418;28;20476;-76
2023/01/05 08:54:12;;;;;;;3.73;2.30;;;;;;;7.05;100.00;96512.69;5053138;28;20510;-76
2023/01/05 08:56:39;;;;;;;10.33;2.87;;;;;;;7.16;100.00;96512.47;5069574;28;20559;-75
2023/01/05 08:59:06;;;;;;;2.90;2.03;;;;;;;7.28;100.00;96517.97;5070983;28;20428;-76
2023/01/05 09:01:33;;;;;;;12.20;2.80;;;;;;;7.31;100.00;96535.75;5069350;28;20432;-76
2023/01/05 09:03:59;;;;;;;5.90;1.53;;;;;;;7.14;100.00;96502.25;5070763;28;20779;-76
2023/01/05 09:06:26;;;;;;;3.33;1.70;;;;;;;7.18;100.00;96510.31;5055958;28;20486;-76
2023/01/05 09:08:53;;;;;;;4.70;2.27;;;;;;;7.19;100.00;96512.63;5052875;28;20440;-76
2023/01/05 09:11:22;;;;;;;5.80;3.37;;;;;;;7.46;100.00;96538.00;5069558;28;20477;-76
2023/01/05 09:13:54;;;;;;;4.37;2.10;;;;;;;7.35;100.00;96534.09;5052657;28;21047;-76
2023/01/05 09:16:23;;;;;;;2.53;1.90;;;;;;;7.41;100.00;96546.03;5069190;28;20506;-76
2023/01/05 09:19:11;;;;;;;6.00;2.10;;;;;;;7.35;100.00;96540.13;5069509;28;20446;-76
2023/01/05 09:21:38;;;;;;;9.93;2.37;;;;;;;7.21;100.00;96528.09;5069333;28;20459;-76
2023/01/05 09:24:06;;;;;;;6.47;1.80;;;;;;;7.28;100.00;96541.63;5052644;28;20509;-76
2023/01/05 09:26:33;;;;;;;10.63;3.47;;;;;;;7.35;100.00;96549.88;5069405;28;20440;-76
2023/01/05 09:28:59;;;;;;;12.83;3.50;;;;;;;7.29;100.00;96532.66;5069337;28;20424;-76
2023/01/05 09:31:26;;;;;;;8.23;1.53;;;;;;;7.24;100.00;96519.63;5069524;28;20436;-76
2023/01/05 09:33:53;;;;;;;4.70;2.20;;;;;;;7.48;100.00;96553.50;5052524;28;20905;-76
2023/01/05 09:36:19;;;;;;;5.80;3.43;;;;;;;7.15;100.00;96524.81;5069112;28;20510;-76
2023/01/05 09:38:51;;;;;;;8.97;2.97;;;;;;;7.35;100.00;96560.41;5065880;28;21276;-76
2023/01/05 09:41:32;;;;;;;12.50;2.97;;;;;;;7.41;100.00;96561.81;5052430;28;20535;-76
2023/01/05 09:44:04;;;;;;;5.17;2.27;;;;;;;7.25;100.00;96547.50;5068899;28;20460;-75
2023/01/05 09:46:37;;;;;;;3.77;1.60;;;;;;;7.32;100.00;96563.59;5069509;28;20425;-75
2023/01/05 09:49:10;;;;;;;4.20;2.10;;;;;;;7.31;100.00;96568.09;5056504;28;20455;-76
2023/01/05 09:51:37;;;;;;;7.33;2.93;;;;;;;7.29;100.00;96567.63;5052440;28;20475;-75
2023/01/05 09:54:04;;;;;;;7.00;2.20;;;;;;;7.14;100.00;96546.94;5052342;28;20452;-76
2023/01/05 09:56:36;;;;;;;9.50;2.37;;;;;;;7.36;100.00;96578.50;5068807;28;20452;-76
2023/01/05 09:59:42;;;;;;;9.67;3.20;;;;;;;7.37;100.00;96563.50;5054877;28;20453;-75
2023/01/05 10:02:25;;;;;;;6.13;1.70;;;;;;;7.28;100.00;96575.81;5057719;28;20484;-76
2023/01/05 10:04:53;;;;;;;7.23;2.13;;;;;;;7.28;100.00;96563.44;5072690;28;20466;-75
2023/01/05 10:07:44;;;;;;;6.53;2.90;;;;;;;7.36;100.00;96569.84;5072595;28;20483;-76
2023/01/05 10:13:01;;;;;;;8.73;1.90;;;;;;;7.37;100.00;96566.91;5072689;28;20856;-76
2023/01/05 10:13:40;;;;;;;10.63;2.90;;;;;;;7.08;100.00;96548.91;5061226;28;20443;-75
2023/01/05 10:16:13;;;;;;;7.47;3.17;;;;;;;6.92;100.00;96521.41;5072393;28;20460;-75
2023/01/05 10:18:40;;;;;;;6.37;2.33;;;;;;;7.27;100.00;96575.03;5072648;28;21141;-75
2023/01/05 10:21:29;;;;;;;13.40;3.60;;;;;;;7.29;100.00;96569.47;5072509;28;20514;-75
2023/01/05 10:24:14;;;;;;;6.57;2.67;;;;;;;7.29;100.00;96567.63;5072350;28;20533;-75
2023/01/05 10:26:47;;;;;;;4.53;2.20;;;;;;;7.31;100.00;96567.31;5055999;28;20431;-75
2023/01/05 10:29:43;;;;;;;7.27;2.17;;;;;;;7.24;100.00;96566.97;5072363;28;20539;-75
2023/01/05 10:32:35;;;;;;;4.50;2.37;;;;;;;7.37;100.00;96563.50;5072410;28;20498;-76
2023/01/05 10:35:16;;;;;;;7.00;2.13;;;;;;;7.28;100.00;96566.06;5073753;28;20533;-75
2023/01/05 10:38:12;;;;;;;3.10;2.17;;;;;;;7.27;100.00;96548.75;5083750;28;20935;-75
2023/01/05 10:40:55;;;;;;;5.87;2.97;;;;;;;7.23;100.00;96539.91;5089741;28;20411;-73
2023/01/05 10:43:56;;;;;;;9.40;2.43;;;;;;;7.38;100.00;96565.84;5098872;28;20420;-74
2023/01/05 10:46:23;;;;;;;11.70;3.00;;;;;;;7.17;100.00;96516.63;5099709;28;20416;-74
2023/01/05 10:49:08;;;;;;;7.97;2.50;;;;;;;7.31;100.00;96533.91;5061523;28;20468;-75
2023/01/05 10:51:35;;;;;;;4.93;2.07;;;;;;;7.35;100.00;96534.88;5072057;28;20482;-75
2023/01/05 10:54:04;;;;;;;4.83;2.50;;;;;;;7.34;100.00;96527.25;5071753;28;21002;-75
2023/01/05 10:56:31;;;;;;;4.43;2.57;;;;;;;7.40;100.00;96534.75;5071872;28;20522;-75
2023/01/05 10:59:14;;;;;;;3.30;1.50;;;;;;;7.75;100.00;96573.66;5055077;28;20448;-75
2023/01/05 11:01:43;;;;;;;3.83;1.87;;;;;;;7.67;100.00;96578.56;5071768;28;20436;-75
2023/01/05 11:04:21;;;;;;;3.80;1.80;;;;;;;7.45;100.00;96546.22;5055212;28;20456;-75
2023/01/05 11:07:04;;;;;;;4.17;1.63;;;;;;;7.61;100.00;96544.75;5071641;28;20436;-75
2023/01/05 11:09:31;;;;;;;8.70;2.77;;;;;;;7.69;100.00;96557.97;5071549;28;20432;-75
2023/01/05 11:12:02;;;;;;;4.30;1.77;;;;;;;7.83;100.00;96575.53;5054985;28;20440;-75
2023/01/05 11:14:34;;;;;;;4.33;2.40;;;;;;;7.85;100.00;96565.47;5072789;28;20885;-75
2023/01/05 11:17:06;;;;;;;7.63;2.50;;;;;;;7.84;100.00;96571.81;5072962;28;20491;-75
2023/01/05 11:19:43;;;;;;;7.50;2.10;;;;;;;7.49;100.00;96541.94;5071519;28;20587;-75
2023/01/05 11:22:30;;;;;;;8.50;4.10;;;;;;;7.66;100.00;96573.59;5071336;28;20497;-75
2023/01/05 11:25:16;;;;;;;8.87;2.07;;;;;;;7.76;100.00;96583.88;5071354;28;20490;-75
2023/01/05 11:27:42;;;;;;;8.57;2.87;;;;;;;7.73;100.00;96555.50;5054772;28;20951;-75
2023/01/05 11:30:23;;;;;;;3.37;1.37;;;;;;;7.81;100.00;96591.63;5071536;28;20870;-75
2023/01/05 11:32:50;;;;;;;4.77;2.33;;;;;;;7.71;100.00;96561.06;5059034;28;20444;-75
2023/01/05 11:35:28;;;;;;;5.20;2.23;;;;;;;7.50;100.00;96509.28;5054661;28;20555;-75
2023/01/05 11:37:56;;;;;;;5.67;2.03;;;;;;;7.81;100.00;96548.75;5080768;28;20437;-75
2023/01/05 11:40:28;;;;;;;6.07;1.87;;;;;;;7.66;100.00;96548.06;5075354;28;20428;-75
2023/01/05 11:42:55;;;;;;;2.40;1.70;;;;;;;7.86;100.00;96562.53;5071197;28;20482;-75
2023/01/05 11:45:24;;;;;;;5.03;1.77;;;;;;;7.60;100.00;96543.22;5071110;28;20814;-75
2023/01/05 11:47:55;;;;;;;9.13;2.73;;;;;;;8.11;100.00;96584.03;5058992;28;20437;-75
2023/01/05 11:50:25;;;;;;;8.77;2.57;;;;;;;8.03;100.00;96566.34;5059691;28;20487;-75
2023/01/05 11:53:00;;;;;;;9.00;2.30;;;;;;;8.18;100.00;96587.03;5056881;28;20428;-75
2023/01/05 11:55:38;;;;;;;9.90;2.00;;;;;;;8.03;100.00;96569.75;5059696;28;20446;-74
2023/01/05 11:58:24;;;;;;;7.83;2.50;;;;;;;8.08;100.00;96576.75;5054601;28;20535;-75
2023/01/05 12:01:11;;;;;;;7.93;1.90;;;;;;;7.77;100.00;96571.50;5071387;28;20440;-75
2023/01/05 12:03:56;;;;;;;5.67;2.47;;;;;;;7.98;100.00;96590.94;5074157;28;20479;-75
2023/01/05 12:06:36;;;;;;;4.53;1.73;;;;;;;7.95;100.00;96586.28;5079149;28;20459;-75
2023/01/05 12:09:33;;;;;;;10.77;3.93;;;;;;;7.79;100.00;96577.22;5070849;28;20436;-75
2023/01/05 12:12:38;;;;;;;6.30;1.50;;;;;;;7.91;100.00;96593.25;5061166;28;20925;-75
2023/01/05 12:15:29;;;;;;;5.10;2.20;;;;;;;7.95;100.00;96588.91;5053669;28;20491;-75
2023/01/05 12:18:24;;;;;;;2.03;1.80;;;;;;;8.01;100.00;96595.59;5053775;28;20498;-75
2023/01/05 12:21:10;;;;;;;7.20;3.27;;;;;;;7.90;100.00;96578.53;5071471;28;20938;-75
2023/01/05 12:23:46;;;;;;;5.00;1.50;;;;;;;8.22;100.00;96594.00;5070279;28;20443;-75
2023/01/05 12:26:16;;;;;;;12.43;2.80;;;;;;;8.18;100.00;96602.81;5053129;28;20435;-75
2023/01/05 12:28:49;;;;;;;8.20;2.20;;;;;;;8.14;100.00;96591.31;5070377;28;21051;-75